createdAt,value
2019-03-11T00:01:51.608Z,0.70
2019-03-11T00:07:00.604Z,0.48
2019-03-11T00:12:09.618Z,0.75
2019-03-11T00:17:18.646Z,0.53
2019-03-11T00:22:27.654Z,0.47
2019-03-11T00:27:36.614Z,0.65
2019-03-11T00:32:45.554Z,0.51
2019-03-11T00:37:54.526Z,0.56
2019-03-11T00:43:03.590Z,0.60
2019-03-11T00:48:12.538Z,0.51
2019-03-11T00:53:21.553Z,0.40
2019-03-11T00:58:30.479Z,0.46
2019-03-11T01:03:39.431Z,0.55
2019-03-11T01:08:48.386Z,0.49
2019-03-11T01:13:57.470Z,0.73
2019-03-11T01:19:06.410Z,0.74
2019-03-11T01:24:15.354Z,0.70
2019-03-11T01:29:24.331Z,0.55
2019-03-11T01:34:33.260Z,0.69
2019-03-11T01:39:42.216Z,0.91
2019-03-11T01:44:51.178Z,0.69
2019-03-11T01:50:00.362Z,0.70
2019-03-11T01:55:09.129Z,0.65
2019-03-11T02:00:18.067Z,0.77
2019-03-11T02:05:27.058Z,0.83
2019-03-11T02:10:36.093Z,0.68
2019-03-11T02:15:45.090Z,0.95
2019-03-11T02:20:54.054Z,0.73
2019-03-11T02:26:03.063Z,0.73
2019-03-11T02:31:12.062Z,0.75
2019-03-11T02:36:21.112Z,0.73
2019-03-11T02:41:30.036Z,1.02
2019-03-11T02:46:39.094Z,0.83
2019-03-11T02:51:48.026Z,0.96
2019-03-11T02:56:57.097Z,0.81
2019-03-11T03:02:06.064Z,1.19
2019-03-11T03:07:15.127Z,0.83
2019-03-11T03:12:24.055Z,0.97
2019-03-11T03:17:33.059Z,0.98
2019-03-11T03:22:42.043Z,0.92
2019-03-11T03:27:51.133Z,0.94
2019-03-11T03:33:00.001Z,1.37
2019-03-11T03:38:09.016Z,1.18
2019-03-11T03:43:17.975Z,1.22
2019-03-11T03:48:27.042Z,1.26
2019-03-11T03:53:35.863Z,0.75
2019-03-11T03:58:44.886Z,1.01
2019-03-11T04:03:53.849Z,0.74
2019-03-11T04:09:02.772Z,1.56
2019-03-11T04:14:11.704Z,0.93
2019-03-11T04:19:20.905Z,1.18
2019-03-11T04:24:29.839Z,1.29
2019-03-11T04:29:38.838Z,1.33
2019-03-11T04:34:47.790Z,1.17
2019-03-11T04:39:56.799Z,0.98
2019-03-11T04:45:05.741Z,1.02
2019-03-11T04:50:14.757Z,0.86
2019-03-11T04:55:23.686Z,2.10
2019-03-11T05:00:32.748Z,0.76
2019-03-11T05:05:41.741Z,0.70
2019-03-11T05:10:50.750Z,0.90
2019-03-11T05:15:59.698Z,0.61
2019-03-11T05:21:08.803Z,0.75
2019-03-11T05:26:16.283Z,0.67
2019-03-11T05:31:25.326Z,1.04
2019-03-11T05:36:34.278Z,1.05
2019-03-11T05:41:43.322Z,1.00
2019-03-11T05:46:52.290Z,0.87
2019-03-11T05:52:01.288Z,0.84
2019-03-11T05:57:10.398Z,1.05
2019-03-11T06:02:19.346Z,1.16
2019-03-11T06:07:28.347Z,0.87
2019-03-11T06:12:37.338Z,0.95
2019-03-11T06:17:46.451Z,0.83
2019-03-11T06:22:55.407Z,1.38
2019-03-11T06:28:04.382Z,1.20
2019-03-11T06:33:13.447Z,1.19
2019-03-11T06:38:22.454Z,1.13
2019-03-11T06:43:31.483Z,1.09
2019-03-11T06:48:40.473Z,1.87
2019-03-11T06:53:49.486Z,1.12
2019-03-11T06:58:58.513Z,1.33
2019-03-11T07:04:07.506Z,1.40
2019-03-11T07:09:16.589Z,1.29
2019-03-11T07:14:25.546Z,1.45
2019-03-11T07:19:34.571Z,0.81
2019-03-11T07:24:43.572Z,1.21
2019-03-11T07:29:52.589Z,1.55
2019-03-11T07:35:08.395Z,1.73
2019-03-11T07:40:10.043Z,1.58
2019-03-11T07:45:19.043Z,1.42
2019-03-11T07:50:28.051Z,1.20
2019-03-11T07:55:36.974Z,1.39
2019-03-11T08:00:53.838Z,1.47
2019-03-11T08:05:54.530Z,1.59
2019-03-11T08:11:03.510Z,1.16
2019-03-11T08:16:12.443Z,1.44
2019-03-11T08:21:21.494Z,1.19
2019-03-11T08:26:30.480Z,1.41
2019-03-11T08:31:39.474Z,1.25
2019-03-11T08:36:48.430Z,1.28
2019-03-11T08:41:57.443Z,1.19
2019-03-11T08:47:06.439Z,1.55
2019-03-11T08:52:15.450Z,1.04
2019-03-11T08:57:24.430Z,1.14
2019-03-11T09:02:33.502Z,0.97
2019-03-11T09:07:42.482Z,1.04
2019-03-11T09:12:51.539Z,1.12
2019-03-11T09:18:00.551Z,1.64
2019-03-11T09:23:09.499Z,1.22
2019-03-11T09:28:18.507Z,0.75
2019-03-11T09:33:27.506Z,1.09
2019-03-11T09:38:36.475Z,1.07
2019-03-11T09:43:45.447Z,1.38
2019-03-11T09:48:54.463Z,1.62
2019-03-11T09:54:03.445Z,1.20
2019-03-11T09:59:12.446Z,1.18
2019-03-11T10:04:21.430Z,1.37
2019-03-11T10:09:30.448Z,0.99
2019-03-11T10:14:39.437Z,1.30
2019-03-11T10:19:48.444Z,1.34
2019-03-11T10:24:57.430Z,1.22
2019-03-11T10:30:06.506Z,1.01
2019-03-11T10:35:30.962Z,0.99
2019-03-11T10:40:25.070Z,0.88
2019-03-11T10:45:34.054Z,1.17
2019-03-11T10:50:43.116Z,1.59
2019-03-11T10:55:52.058Z,1.11
2019-03-11T11:01:01.085Z,1.28
2019-03-11T11:06:10.078Z,1.07
2019-03-11T11:11:19.127Z,1.37
2019-03-11T11:16:28.130Z,0.97
2019-03-11T11:21:37.138Z,0.91
2019-03-11T11:26:46.130Z,1.05
2019-03-11T11:31:55.194Z,0.88
2019-03-11T11:37:04.204Z,1.13
2019-03-11T11:42:13.166Z,0.93
2019-03-11T11:47:22.153Z,1.10
2019-03-11T11:52:31.131Z,0.98
2019-03-11T11:57:40.130Z,1.11
2019-03-11T12:02:49.099Z,0.93
2019-03-11T12:07:58.082Z,1.28
2019-03-11T12:13:07.050Z,0.95
2019-03-11T12:18:16.046Z,0.95
2019-03-11T12:23:25.009Z,0.95
2019-03-11T12:28:34.009Z,0.87
2019-03-11T12:33:43.187Z,1.09
2019-03-11T12:38:52.178Z,1.50
2019-03-11T12:44:01.305Z,1.07
2019-03-11T12:49:10.233Z,1.27
2019-03-11T12:54:19.214Z,1.24
2019-03-11T12:59:28.168Z,1.20
2019-03-11T13:04:37.208Z,1.41
2019-03-11T13:09:46.139Z,1.50
2019-03-11T13:14:55.162Z,1.03
2019-03-11T13:20:04.101Z,1.40
2019-03-11T13:25:13.075Z,1.11
2019-03-11T13:30:22.028Z,1.23
2019-03-11T13:35:30.962Z,1.09
2019-03-11T13:40:39.973Z,0.74
2019-03-11T13:45:48.912Z,1.27
2019-03-11T13:50:57.976Z,1.13
2019-03-11T13:56:06.901Z,0.92
2019-03-11T14:01:15.898Z,1.14
2019-03-11T14:06:24.862Z,1.33
2019-03-11T14:11:33.906Z,1.08
2019-03-11T14:16:42.912Z,0.96
2019-03-11T14:21:51.912Z,1.36
2019-03-11T14:27:01.050Z,1.22
2019-03-11T14:32:10.593Z,1.29
2019-03-11T14:37:18.595Z,0.96
2019-03-11T14:42:27.662Z,0.66
2019-03-11T14:47:36.662Z,1.11
2019-03-11T14:52:45.754Z,0.99
2019-03-11T14:57:54.743Z,1.23
2019-03-11T15:03:03.762Z,1.06
2019-03-11T15:08:12.881Z,1.25
2019-03-11T15:13:21.766Z,1.10
2019-03-11T15:18:31.089Z,1.21
2019-03-11T15:23:40.116Z,1.16
2019-03-11T15:28:49.429Z,1.34
2019-03-11T15:33:58.434Z,1.20
2019-03-11T15:39:07.377Z,1.31
2019-03-11T15:44:16.406Z,0.70
2019-03-11T15:49:25.403Z,1.02
2019-03-11T15:54:34.409Z,1.29
2019-03-11T15:59:43.368Z,1.00
2019-03-11T16:04:52.384Z,1.05
2019-03-11T16:10:01.362Z,1.34
2019-03-11T16:15:10.374Z,1.17
2019-03-11T16:20:19.328Z,1.14
2019-03-11T16:25:28.326Z,1.26
2019-03-11T16:30:37.330Z,1.09
2019-03-11T16:35:46.378Z,0.94
2019-03-11T16:40:55.345Z,0.81
2019-03-11T16:46:04.547Z,1.18
2019-03-11T16:51:13.386Z,1.45
2019-03-11T16:56:22.427Z,1.36
2019-03-11T17:01:31.382Z,1.39
2019-03-11T17:06:40.307Z,1.13
2019-03-11T17:11:49.269Z,1.35
2019-03-11T17:16:58.230Z,1.19
2019-03-11T17:22:08.525Z,1.11
2019-03-11T17:27:15.718Z,1.18
2019-03-11T17:32:24.699Z,1.12
2019-03-11T17:37:33.646Z,1.60
2019-03-11T17:42:42.610Z,0.94
2019-03-11T17:47:51.574Z,1.23
2019-03-11T17:53:00.535Z,1.34
2019-03-11T17:58:09.490Z,1.29
2019-03-11T18:03:18.490Z,1.59
2019-03-11T18:08:27.474Z,1.13
2019-03-11T18:13:36.395Z,1.09
2019-03-11T18:18:45.474Z,1.06
2019-03-11T18:23:54.463Z,1.16
2019-03-11T18:29:03.476Z,1.60
2019-03-11T18:34:12.434Z,0.96
2019-03-11T18:39:21.420Z,1.02
2019-03-11T18:44:30.419Z,1.18
2019-03-11T18:49:39.382Z,1.17
2019-03-11T18:54:48.398Z,1.18
2019-03-11T18:59:57.358Z,1.17
2019-03-11T19:05:06.392Z,1.27
2019-03-11T19:10:15.349Z,1.24
2019-03-11T19:15:24.350Z,1.07
2019-03-11T19:20:33.302Z,1.21
2019-03-11T19:25:42.421Z,1.37
2019-03-11T19:30:51.337Z,1.15
2019-03-11T19:36:00.345Z,1.24
2019-03-11T19:41:09.353Z,1.71
2019-03-11T19:46:18.311Z,1.37
2019-03-11T19:51:27.397Z,1.39
2019-03-11T19:56:36.380Z,1.51
2019-03-11T20:01:45.385Z,1.62
2019-03-11T20:06:54.338Z,1.45
2019-03-11T20:12:03.367Z,1.36
2019-03-11T20:17:12.336Z,1.44
2019-03-11T20:22:21.339Z,1.37
2019-03-11T20:27:30.359Z,1.51
2019-03-11T20:32:39.376Z,1.59
2019-03-11T20:37:48.392Z,1.56
2019-03-11T20:42:57.403Z,1.33
2019-03-11T20:48:06.389Z,1.32
2019-03-11T20:53:15.379Z,1.24
2019-03-11T20:58:24.458Z,1.47
2019-03-11T21:03:33.399Z,1.50
2019-03-11T21:08:45.362Z,1.46
2019-03-11T21:13:50.839Z,1.54
2019-03-11T21:18:59.800Z,1.64
2019-03-11T21:24:08.789Z,1.66
2019-03-11T21:29:17.770Z,1.92
2019-03-11T21:34:26.763Z,1.52
2019-03-11T21:39:35.720Z,1.56
2019-03-11T21:44:44.667Z,2.02
2019-03-11T21:49:53.684Z,2.16
2019-03-11T21:55:02.604Z,2.12
2019-03-11T22:00:11.482Z,2.38
2019-03-11T22:05:20.431Z,1.87
2019-03-11T22:10:29.371Z,2.18
2019-03-11T22:15:38.352Z,2.43
2019-03-11T22:20:47.266Z,2.43
2019-03-11T22:25:56.355Z,2.48
2019-03-11T22:31:05.351Z,2.27
2019-03-11T22:36:14.422Z,3.07
2019-03-11T22:41:23.615Z,2.84
2019-03-11T22:46:32.614Z,3.18
2019-03-11T22:51:41.614Z,3.35
2019-03-11T22:56:50.566Z,3.76
2019-03-11T23:01:59.603Z,4.08
2019-03-11T23:07:08.578Z,4.23
2019-03-11T23:12:17.570Z,4.90
2019-03-11T23:17:26.514Z,3.86
2019-03-11T23:22:35.514Z,4.31
2019-03-11T23:27:44.524Z,4.51
2019-03-11T23:32:53.516Z,3.89
2019-03-11T23:38:02.758Z,4.00
2019-03-11T23:43:11.743Z,4.76
2019-03-11T23:48:20.735Z,4.19
2019-03-11T23:53:29.726Z,4.28
2019-03-11T23:58:38.689Z,4.00
